Time;durP1;ratioP1;P1;durP2;ratioP2;P2;SDS_P1;SDS_P2;PMS_P1;PMS_P2;Temp;Humidity;BMP_temperature;BMP_pressure;BME280_temperature;BME280_humidity;BME280_pressure;Samples;Min_cycle;Max_cycle;Signal;HPM_P1;HPM_P2
2021/04/12 00:01:05;;;;;;;1.13;1.00;;;0.80;99.90;;;;;;5067952;28;20219;-78
2021/04/12 00:03:38;;;;;;;1.20;1.10;;;0.80;99.90;;;;;;5066233;28;20230;-81
2021/04/12 00:06:15;;;;;;;1.20;1.10;;;0.80;99.90;;;;;;5050856;28;20205;-82
2021/04/12 00:08:54;;;;;;;1.70;1.20;;;0.70;99.90;;;;;;5066313;28;20291;-81
2021/04/12 00:11:30;;;;;;;1.17;1.00;;;0.70;99.90;;;;;;5067906;28;20220;-82
2021/04/12 00:14:20;;;;;;;1.00;1.00;;;0.70;99.90;;;;;;5043384;28;20200;-85
2021/04/12 00:16:54;;;;;;;1.23;1.13;;;0.70;99.90;;;;;;5069003;28;20185;-81
2021/04/12 00:19:29;;;;;;;1.02;0.93;;;0.70;99.90;;;;;;5049289;28;20204;-82
2021/04/12 00:22:04;;;;;;;1.25;1.15;;;0.80;99.90;;;;;;5057756;28;20222;-80
2021/04/12 00:24:43;;;;;;;1.52;1.20;;;0.80;99.90;;;;;;5067126;28;20207;-82
2021/04/12 00:27:43;;;;;;;1.02;0.98;;;0.80;99.90;;;;;;5067713;28;20615;-80
2021/04/12 00:30:18;;;;;;;2.85;0.95;;;0.80;99.90;;;;;;5065169;28;20224;-81
2021/04/12 00:33:22;;;;;;;1.15;1.02;;;0.80;99.90;;;;;;5066496;28;20192;-81
2021/04/12 00:36:16;;;;;;;1.02;1.02;;;0.80;99.90;;;;;;5022386;28;20207;-78
2021/04/12 00:38:57;;;;;;;1.10;1.02;;;0.80;99.90;;;;;;5054214;28;20196;-78
2021/04/12 00:41:29;;;;;;;2.25;1.27;;;0.70;99.90;;;;;;5055387;28;20279;-78
2021/04/12 00:44:00;;;;;;;1.70;1.10;;;0.80;99.90;;;;;;5054507;28;20188;-79
2021/04/12 00:46:38;;;;;;;1.10;1.00;;;0.80;99.90;;;;;;5071959;28;20238;-79
2021/04/12 00:49:40;;;;;;;0.85;0.85;;;0.80;99.90;;;;;;5054522;28;20216;-80
2021/04/12 00:52:33;;;;;;;0.90;0.90;;;0.80;99.90;;;;;;5072063;28;20886;-79
2021/04/12 00:55:27;;;;;;;1.25;1.15;;;0.80;99.90;;;;;;5052727;28;20188;-78
2021/04/12 00:58:05;;;;;;;0.98;0.82;;;0.80;99.90;;;;;;5068989;28;20564;-79
2021/04/12 01:00:40;;;;;;;2.10;1.00;;;0.80;99.90;;;;;;5054727;28;20188;-79
2021/04/12 01:03:31;;;;;;;0.98;0.98;;;0.80;99.90;;;;;;5055704;28;20192;-79
2021/04/12 01:06:10;;;;;;;0.70;0.70;;;0.80;99.90;;;;;;5053636;28;20632;-79
2021/04/12 01:09:13;;;;;;;0.80;0.80;;;0.90;99.90;;;;;;5055612;28;20239;-79
2021/04/12 01:12:17;;;;;;;0.80;0.80;;;0.80;99.90;;;;;;5071107;28;20202;-79
2021/04/12 01:15:07;;;;;;;1.08;1.02;;;0.90;99.90;;;;;;5042228;28;20912;-80
2021/04/12 01:17:50;;;;;;;1.85;0.80;;;0.90;99.90;;;;;;5070788;28;20626;-79
2021/04/12 01:20:46;;;;;;;0.80;0.80;;;0.90;99.90;;;;;;5069706;28;20196;-79
2021/04/12 01:23:54;;;;;;;1.10;0.93;;;0.90;99.90;;;;;;5072344;28;20201;-82
2021/04/12 01:26:42;;;;;;;1.52;1.10;;;0.90;99.90;;;;;;5068179;28;20189;-81
2021/04/12 01:29:29;;;;;;;0.88;0.88;;;0.90;99.90;;;;;;5052427;28;20201;-80
2021/04/12 01:32:38;;;;;;;0.93;0.90;;;0.90;99.90;;;;;;5071634;28;20193;-83
2021/04/12 01:35:42;;;;;;;1.10;1.00;;;0.80;99.90;;;;;;5070203;28;20189;-79
2021/04/12 01:38:29;;;;;;;0.90;0.90;;;0.80;99.90;;;;;;5069484;28;20486;-80
2021/04/12 01:40:57;;;;;;;1.10;1.00;;;0.80;99.90;;;;;;5054291;28;20197;-80
2021/04/12 01:43:42;;;;;;;1.77;0.82;;;0.80;99.90;;;;;;5071826;28;20205;-80
2021/04/12 01:46:21;;;;;;;0.85;0.80;;;0.70;99.90;;;;;;5053842;28;20198;-80
2021/04/12 01:48:56;;;;;;;0.82;0.82;;;0.70;99.90;;;;;;5051878;28;20291;-80
2021/04/12 01:51:49;;;;;;;1.00;1.00;;;0.70;99.90;;;;;;5070597;28;20192;-80
2021/04/12 01:54:51;;;;;;;1.20;1.10;;;0.80;99.90;;;;;;5072060;28;20204;-84
2021/04/12 01:57:34;;;;;;;1.05;0.77;;;0.80;99.90;;;;;;5033010;28;20239;-80
2021/04/12 02:00:24;;;;;;;0.80;0.80;;;0.80;99.90;;;;;;5051703;28;20326;-80
2021/04/12 02:03:15;;;;;;;0.90;0.90;;;0.80;99.90;;;;;;5065835;28;20203;-80
2021/04/12 02:05:50;;;;;;;1.15;1.05;;;0.90;99.90;;;;;;5051593;28;20209;-80
2021/04/12 02:08:45;;;;;;;0.70;0.70;;;0.80;99.90;;;;;;5052481;28;20220;-80
2021/04/12 02:11:14;;;;;;;0.80;0.80;;;0.80;99.90;;;;;;5053125;28;20197;-79
2021/04/12 02:13:51;;;;;;;1.10;1.00;;;0.80;99.90;;;;;;5052329;28;21271;-80
2021/04/12 02:16:38;;;;;;;0.88;0.88;;;0.80;99.90;;;;;;5065568;28;20189;-80
2021/04/12 02:19:31;;;;;;;0.88;0.88;;;0.70;99.90;;;;;;5064342;28;20201;-80
2021/04/12 02:22:15;;;;;;;0.77;0.77;;;0.80;99.90;;;;;;5066967;28;20574;-80
2021/04/12 02:25:04;;;;;;;0.70;0.70;;;0.80;99.90;;;;;;5073013;28;20196;-80
2021/04/12 02:27:58;;;;;;;0.80;0.80;;;0.80;99.90;;;;;;5060638;28;20209;-80
2021/04/12 02:30:30;;;;;;;1.10;1.00;;;0.80;99.90;;;;;;5051964;28;20233;-80
2021/04/12 02:33:02;;;;;;;0.90;0.90;;;0.70;99.90;;;;;;5068384;28;20734;-80
2021/04/12 02:36:05;;;;;;;1.00;0.90;;;0.70;99.90;;;;;;5053253;28;20199;-80
2021/04/12 02:38:48;;;;;;;0.80;0.80;;;0.70;99.90;;;;;;5057890;28;20203;-80
2021/04/12 02:41:35;;;;;;;0.95;0.95;;;0.80;99.90;;;;;;5069167;28;20630;-81
2021/04/12 02:44:23;;;;;;;0.77;0.77;;;0.70;99.90;;;;;;5050924;28;20196;-80
2021/04/12 02:47:07;;;;;;;0.90;0.90;;;0.70;99.90;;;;;;5052261;28;21032;-81
2021/04/12 02:50:00;;;;;;;0.80;0.80;;;0.70;99.90;;;;;;5070548;28;20208;-80
2021/04/12 02:52:32;;;;;;;0.90;0.90;;;0.70;99.90;;;;;;5070784;28;20337;-80
2021/04/12 02:55:29;;;;;;;1.33;1.10;;;0.70;99.90;;;;;;5051051;28;20193;-81
2021/04/12 02:58:35;;;;;;;0.80;0.80;;;0.60;99.90;;;;;;5051730;28;20288;-81
2021/04/12 03:01:23;;;;;;;0.88;0.88;;;0.70;99.90;;;;;;5068292;28;20195;-81
2021/04/12 03:04:07;;;;;;;0.70;0.70;;;0.60;99.90;;;;;;5042435;28;20224;-80
2021/04/12 03:06:42;;;;;;;1.10;1.00;;;0.60;99.90;;;;;;5068413;28;20567;-80
2021/04/12 03:10:06;;;;;;;1.15;0.80;;;0.60;99.90;;;;;;5052385;28;20287;-80
2021/04/12 03:12:38;;;;;;;1.20;0.90;;;0.70;99.90;;;;;;5010060;28;20216;-80
2021/04/12 03:15:15;;;;;;;1.02;0.93;;;0.60;99.90;;;;;;5007068;28;20228;-80
2021/04/12 03:18:10;;;;;;;0.90;0.90;;;0.60;99.90;;;;;;5019836;28;20208;-80
2021/04/12 03:20:47;;;;;;;1.10;1.00;;;0.60;99.90;;;;;;5017868;28;20182;-80
2021/04/12 03:23:46;;;;;;;0.98;0.93;;;0.60;99.90;;;;;;5021810;28;20295;-80
2021/04/12 03:26:44;;;;;;;0.80;0.80;;;0.60;99.90;;;;;;4983624;28;20236;-81
2021/04/12 03:29:27;;;;;;;0.73;0.73;;;0.60;99.90;;;;;;5019219;28;20224;-81
2021/04/12 03:32:04;;;;;;;0.88;0.88;;;0.60;99.90;;;;;;5016723;28;20217;-80
2021/04/12 03:34:34;;;;;;;0.80;0.80;;;0.70;99.90;;;;;;5020638;28;20610;-81
2021/04/12 03:37:05;;;;;;;0.90;0.90;;;0.70;99.90;;;;;;5018457;28;20222;-81
2021/04/12 03:39:40;;;;;;;0.80;0.80;;;0.60;99.90;;;;;;5020777;28;20198;-81
2021/04/12 03:42:34;;;;;;;0.85;0.85;;;0.70;99.90;;;;;;5016888;28;20205;-80
2021/04/12 03:45:05;;;;;;;0.80;0.80;;;0.70;99.90;;;;;;5050134;28;20215;-80
2021/04/12 03:47:48;;;;;;;1.42;0.93;;;0.70;99.90;;;;;;5067185;28;20288;-79
2021/04/12 03:50:29;;;;;;;0.77;0.77;;;0.70;99.90;;;;;;5050727;28;20216;-79
2021/04/12 03:53:16;;;;;;;0.80;0.80;;;0.70;99.90;;;;;;5045767;28;20212;-81
2021/04/12 03:56:14;;;;;;;0.70;0.70;;;0.70;99.90;;;;;;5056573;28;20231;-81
2021/04/12 03:58:52;;;;;;;0.80;0.80;;;0.70;99.90;;;;;;5047215;28;20239;-82
2021/04/12 04:01:45;;;;;;;0.73;0.73;;;0.70;99.90;;;;;;5063260;28;20203;-80
2021/04/12 04:04:11;;;;;;;0.70;0.70;;;0.70;99.90;;;;;;5062110;28;20741;-82
2021/04/12 04:06:57;;;;;;;0.75;0.75;;;0.70;99.90;;;;;;5054633;28;20228;-83
2021/04/12 04:09:41;;;;;;;0.80;0.80;;;0.70;99.90;;;;;;5070828;28;20750;-81
2021/04/12 04:12:13;;;;;;;0.90;0.90;;;0.70;99.90;;;;;;5049547;28;20201;-80
2021/04/12 04:15:03;;;;;;;0.82;0.82;;;0.70;99.90;;;;;;5048695;28;20197;-80
2021/04/12 04:17:53;;;;;;;2.42;0.80;;;0.70;99.90;;;;;;5065756;28;20659;-80
2021/04/12 04:20:57;;;;;;;0.90;0.90;;;0.80;99.90;;;;;;5053940;28;20204;-84
2021/04/12 04:23:39;;;;;;;0.80;0.80;;;0.80;99.90;;;;;;5066547;28;20209;-82
2021/04/12 04:26:10;;;;;;;0.90;0.90;;;0.80;99.90;;;;;;5049023;28;20577;-81
2021/04/12 04:29:13;;;;;;;1.00;1.00;;;0.80;99.90;;;;;;5068290;28;20709;-81
2021/04/12 04:31:54;;;;;;;0.80;0.80;;;0.80;99.90;;;;;;5035198;28;20239;-82
2021/04/12 04:34:33;;;;;;;0.80;0.80;;;0.80;99.90;;;;;;5054387;28;20701;-82
2021/04/12 04:36:58;;;;;;;0.80;0.80;;;0.80;99.90;;;;;;5068225;28;20677;-82
2021/04/12 04:39:54;;;;;;;0.80;0.80;;;0.70;99.90;;;;;;5050276;28;20201;-83
2021/04/12 04:42:37;;;;;;;0.77;0.77;;;0.70;99.90;;;;;;5035459;28;20204;-81
2021/04/12 04:45:24;;;;;;;0.90;0.90;;;0.70;99.90;;;;;;5062995;28;20201;-81
2021/04/12 04:48:12;;;;;;;0.70;0.70;;;0.70;99.90;;;;;;5051393;28;20200;-82
2021/04/12 04:51:15;;;;;;;0.80;0.80;;;0.70;99.90;;;;;;5065211;28;20206;-81
2021/04/12 04:54:15;;;;;;;0.90;0.90;;;0.80;99.90;;;;;;5048860;28;20714;-81
2021/04/12 04:57:04;;;;;;;1.63;0.90;;;0.80;99.90;;;;;;5065291;28;20193;-81
2021/04/12 04:59:58;;;;;;;0.80;0.80;;;0.80;99.90;;;;;;5063032;28;20196;-81
2021/04/12 05:02:44;;;;;;;0.80;0.80;;;0.80;99.90;;;;;;5067678;28;20200;-82
2021/04/12 05:05:40;;;;;;;0.90;0.90;;;0.90;99.90;;;;;;5049693;28;20315;-81
2021/04/12 05:08:30;;;;;;;0.80;0.80;;;0.90;99.90;;;;;;5052423;28;20211;-81
2021/04/12 05:11:35;;;;;;;0.90;0.90;;;0.80;99.90;;;;;;5043992;28;20296;-82
2021/04/12 05:14:13;;;;;;;0.70;0.70;;;0.90;99.90;;;;;;5049413;28;20267;-81
2021/04/12 05:16:49;;;;;;;1.30;1.00;;;0.90;99.90;;;;;;5048782;28;20231;-82
2021/04/12 05:19:37;;;;;;;0.85;0.85;;;0.90;99.90;;;;;;5060897;28;20196;-84
2021/04/12 05:22:25;;;;;;;1.00;1.00;;;0.90;99.90;;;;;;5040446;28;21297;-82
2021/04/12 05:25:11;;;;;;;0.80;0.80;;;0.90;99.90;;;;;;5065244;28;20288;-82
2021/04/12 05:27:55;;;;;;;0.80;0.80;;;0.80;99.90;;;;;;5069179;28;20685;-81
2021/04/12 05:30:59;;;;;;;34.13;15.88;;;0.90;99.90;;;;;;5070055;28;20804;-82
2021/04/12 05:34:15;;;;;;;132.57;61.60;;;0.90;99.90;;;;;;5050438;28;20744;-82
2021/04/12 05:37:00;;;;;;;50.45;24.25;;;0.90;99.90;;;;;;5052609;28;20189;-82
2021/04/12 05:40:03;;;;;;;7.53;4.93;;;0.90;99.90;;;;;;5061042;28;20290;-81
2021/04/12 05:42:44;;;;;;;11.60;6.97;;;0.90;99.90;;;;;;5042507;28;20220;-80
2021/04/12 05:45:38;;;;;;;6.90;3.83;;;1.00;99.90;;;;;;5068405;28;20296;-82
2021/04/12 05:48:37;;;;;;;9.75;6.15;;;1.00;99.90;;;;;;5069238;28;20196;-81
2021/04/12 05:51:18;;;;;;;21.90;10.90;;;1.00;99.90;;;;;;5068565;28;20253;-81
2021/04/12 05:53:46;;;;;;;22.30;11.70;;;1.00;99.90;;;;;;5051066;28;20201;-82
2021/04/12 05:56:28;;;;;;;8.77;4.22;;;1.10;99.90;;;;;;5071242;28;20189;-82
2021/04/12 05:59:14;;;;;;;3.83;2.80;;;1.00;99.90;;;;;;5061999;28;20240;-82
2021/04/12 06:02:32;;;;;;;3.72;1.83;;;1.10;99.90;;;;;;5069327;28;21003;-81
2021/04/12 06:05:00;;;;;;;3.92;2.53;;;1.20;99.90;;;;;;5009314;28;20221;-81
2021/04/12 06:07:36;;;;;;;3.30;1.80;;;1.20;99.90;;;;;;5051860;28;20250;-82
2021/04/12 06:10:27;;;;;;;1.05;0.90;;;1.20;99.90;;;;;;5072818;28;20737;-82
2021/04/12 06:13:33;;;;;;;2.60;1.63;;;1.20;99.90;;;;;;5063417;28;20196;-82
2021/04/12 06:16:28;;;;;;;2.67;1.83;;;1.20;99.90;;;;;;5064209;28;20200;-81
2021/04/12 06:19:19;;;;;;;2.42;2.03;;;1.30;99.90;;;;;;5065703;28;20285;-81
2021/04/12 06:21:57;;;;;;;2.72;1.70;;;1.30;99.90;;;;;;5066097;28;20299;-82
2021/04/12 06:24:39;;;;;;;12.15;6.78;;;1.40;99.90;;;;;;5071393;28;20903;-80
2021/04/12 06:27:24;;;;;;;5.22;3.35;;;1.40;99.90;;;;;;5052966;28;20203;-82
2021/04/12 06:30:08;;;;;;;3.85;2.50;;;1.30;99.90;;;;;;5066853;28;20213;-82
2021/04/12 06:33:01;;;;;;;3.63;1.92;;;1.30;99.90;;;;;;5064506;28;20196;-82
2021/04/12 06:36:05;;;;;;;2.20;1.73;;;1.30;99.90;;;;;;5066019;28;20198;-80
2021/04/12 06:38:48;;;;;;;1.67;1.45;;;1.30;99.90;;;;;;5067021;28;20518;-81
2021/04/12 06:42:03;;;;;;;0.73;0.73;;;1.30;99.90;;;;;;5049645;28;20288;-80
2021/04/12 06:44:51;;;;;;;2.03;1.70;;;1.30;99.90;;;;;;5068076;28;20243;-81
2021/04/12 06:47:44;;;;;;;1.35;1.25;;;1.30;99.90;;;;;;5069410;28;20250;-81
2021/04/12 06:50:51;;;;;;;1.52;1.20;;;1.30;99.90;;;;;;5068225;28;20750;-81
2021/04/12 06:53:51;;;;;;;1.20;1.10;;;1.30;99.90;;;;;;5006315;28;20212;-85
2021/04/12 06:56:37;;;;;;;0.95;0.80;;;1.30;99.90;;;;;;5047799;28;20209;-80
2021/04/12 06:59:18;;;;;;;1.00;1.00;;;1.30;99.90;;;;;;5069987;28;20201;-84
2021/04/12 07:02:15;;;;;;;0.90;0.90;;;1.30;99.90;;;;;;5049125;28;20192;-80
2021/04/12 07:05:05;;;;;;;0.70;0.70;;;1.30;99.90;;;;;;5064133;28;20634;-80
2021/04/12 07:07:50;;;;;;;0.90;0.90;;;1.40;99.90;;;;;;5048460;28;20197;-80
2021/04/12 07:10:32;;;;;;;1.10;1.00;;;1.30;99.90;;;;;;5049078;28;20232;-80
2021/04/12 07:13:18;;;;;;;0.80;0.80;;;1.40;99.90;;;;;;5050930;28;20269;-80
2021/04/12 07:16:10;;;;;;;1.00;0.90;;;1.40;99.90;;;;;;5051057;28;20537;-85
2021/04/12 07:18:54;;;;;;;1.67;1.40;;;1.40;99.90;;;;;;5036640;28;20205;-80
2021/04/12 07:21:44;;;;;;;1.25;1.15;;;1.30;99.90;;;;;;5067259;28;20200;-81
2021/04/12 07:25:04;;;;;;;1.27;1.17;;;1.30;99.90;;;;;;5060551;28;20965;-81
2021/04/12 07:28:20;;;;;;;10.75;7.30;;;1.50;99.90;;;;;;5007039;28;20206;-82
2021/04/12 07:31:23;;;;;;;3.92;2.38;;;1.50;99.90;;;;;;5066963;28;20255;-81
2021/04/12 07:34:07;;;;;;;3.75;2.42;;;1.50;99.90;;;;;;5045591;28;20531;-80
2021/04/12 07:36:52;;;;;;;1.33;1.08;;;1.50;99.90;;;;;;5063128;28;21013;-80
2021/04/12 07:39:37;;;;;;;1.63;1.20;;;1.50;99.90;;;;;;5046437;28;20196;-81
2021/04/12 07:42:42;;;;;;;1.50;1.40;;;1.60;99.90;;;;;;5068204;28;20568;-80
2021/04/12 07:45:56;;;;;;;1.35;1.25;;;1.60;99.90;;;;;;5068012;28;20212;-82
2021/04/12 07:48:53;;;;;;;1.20;1.10;;;1.50;99.90;;;;;;5067677;28;20223;-80
2021/04/12 07:51:50;;;;;;;1.08;0.98;;;1.60;99.90;;;;;;5066403;28;20682;-82
2021/04/12 07:55:06;;;;;;;0.90;0.90;;;1.60;99.90;;;;;;5048621;28;20204;-80
2021/04/12 07:58:20;;;;;;;0.82;0.82;;;1.50;99.90;;;;;;5044211;28;20213;-80
2021/04/12 08:01:04;;;;;;;0.80;0.80;;;1.60;99.90;;;;;;5059653;28;20212;-82
2021/04/12 08:03:49;;;;;;;0.98;0.98;;;1.60;99.90;;;;;;5062014;28;20224;-81
2021/04/12 08:06:36;;;;;;;1.30;1.10;;;1.60;99.90;;;;;;5063708;28;20199;-80
2021/04/12 08:09:21;;;;;;;1.30;1.20;;;1.70;99.90;;;;;;5068846;28;20292;-81
2021/04/12 08:12:05;;;;;;;1.30;1.20;;;1.80;99.90;;;;;;5067836;28;20727;-84
2021/04/12 08:14:52;;;;;;;1.48;1.38;;;1.70;99.90;;;;;;5063644;28;20220;-80
2021/04/12 08:17:37;;;;;;;1.67;1.20;;;1.80;99.90;;;;;;5063014;28;20707;-80
2021/04/12 08:20:18;;;;;;;1.20;1.10;;;1.70;99.90;;;;;;5045312;28;20945;-80
2021/04/12 08:23:08;;;;;;;1.38;1.10;;;1.80;99.90;;;;;;5066236;28;20198;-82
2021/04/12 08:25:55;;;;;;;1.20;1.10;;;1.80;99.90;;;;;;5042925;28;20624;-81
2021/04/12 08:28:59;;;;;;;1.00;0.90;;;1.70;99.90;;;;;;5062562;28;20237;-81
2021/04/12 08:32:01;;;;;;;1.20;1.02;;;1.90;99.90;;;;;;5065406;28;20192;-80
2021/04/12 08:34:49;;;;;;;1.05;1.00;;;2.00;99.90;;;;;;5059456;28;20322;-79
2021/04/12 08:37:48;;;;;;;1.13;1.00;;;2.00;99.90;;;;;;5065529;28;20196;-79
2021/04/12 08:40:33;;;;;;;1.70;1.00;;;1.90;99.90;;;;;;5046027;28;20219;-80
2021/04/12 08:43:01;;;;;;;1.20;1.10;;;1.90;99.90;;;;;;5065919;28;20200;-79
2021/04/12 08:45:48;;;;;;;1.15;1.00;;;1.90;99.90;;;;;;5050658;28;20749;-80
2021/04/12 08:48:22;;;;;;;1.40;1.10;;;2.00;99.90;;;;;;5041683;28;20221;-79
2021/04/12 08:51:12;;;;;;;1.27;1.17;;;1.90;99.90;;;;;;5045089;28;20211;-81
2021/04/12 08:53:50;;;;;;;3.33;2.03;;;1.90;99.90;;;;;;5049529;28;20547;-79
2021/04/12 08:56:18;;;;;;;2.45;1.65;;;2.00;99.90;;;;;;5062663;28;20193;-79
2021/04/12 08:58:50;;;;;;;2.55;1.77;;;2.10;99.90;;;;;;5048530;28;20200;-80
2021/04/12 09:01:54;;;;;;;2.80;1.88;;;2.10;99.90;;;;;;5066205;28;20218;-81
2021/04/12 09:04:58;;;;;;;3.45;1.92;;;2.10;99.90;;;;;;5045616;28;20799;-81
2021/04/12 09:08:18;;;;;;;2.40;1.95;;;2.10;99.90;;;;;;5068708;28;20257;-81
2021/04/12 09:11:16;;;;;;;2.85;1.90;;;2.10;99.90;;;;;;4998127;28;20297;-81
2021/04/12 09:14:18;;;;;;;1.83;1.63;;;2.20;99.90;;;;;;5009114;28;20278;-81
2021/04/12 09:17:16;;;;;;;2.00;1.73;;;2.20;99.90;;;;;;5012961;28;20228;-80
2021/04/12 09:19:56;;;;;;;2.20;1.60;;;2.30;99.90;;;;;;5009896;28;20210;-82
2021/04/12 09:22:24;;;;;;;2.45;1.90;;;2.40;99.90;;;;;;5004668;28;20198;-80
2021/04/12 09:25:18;;;;;;;2.83;1.85;;;2.50;99.90;;;;;;5003542;28;20289;-81
2021/04/12 09:28:05;;;;;;;1.70;1.30;;;2.70;99.90;;;;;;5003034;28;20206;-80
2021/04/12 09:30:51;;;;;;;1.75;1.63;;;2.90;99.90;;;;;;5009106;28;20214;-80
2021/04/12 09:33:45;;;;;;;1.77;1.48;;;2.90;99.90;;;;;;4990633;28;20597;-83
2021/04/12 09:36:51;;;;;;;1.38;1.20;;;3.00;99.90;;;;;;5004749;28;20272;-80
2021/04/12 09:39:29;;;;;;;1.52;1.30;;;3.00;99.90;;;;;;5009488;28;20248;-84
2021/04/12 09:42:11;;;;;;;1.48;1.33;;;3.00;99.90;;;;;;4998673;28;20210;-79
2021/04/12 09:45:14;;;;;;;1.48;1.30;;;3.00;99.90;;;;;;5038873;28;20209;-78
2021/04/12 09:47:58;;;;;;;1.25;1.15;;;3.00;99.90;;;;;;5048803;28;20292;-78
2021/04/12 09:50:44;;;;;;;2.83;2.00;;;3.00;99.90;;;;;;5052066;28;20197;-79
2021/04/12 09:53:46;;;;;;;6.30;3.67;;;3.00;99.90;;;;;;5052681;28;20242;-79
2021/04/12 09:56:45;;;;;;;4.60;3.30;;;3.10;99.90;;;;;;5065780;28;20210;-79
2021/04/12 09:59:32;;;;;;;5.10;1.40;;;3.20;99.90;;;;;;5073608;28;20203;-79
2021/04/12 10:02:25;;;;;;;1.70;1.42;;;3.40;99.90;;;;;;5049660;28;20184;-81
2021/04/12 10:05:07;;;;;;;1.30;1.20;;;3.70;99.90;;;;;;5052229;28;20255;-79
2021/04/12 10:07:54;;;;;;;1.30;1.20;;;3.90;99.90;;;;;;5038636;28;20644;-80
2021/04/12 10:10:46;;;;;;;1.15;1.05;;;4.00;99.90;;;;;;5040359;28;20690;-80
2021/04/12 10:13:24;;;;;;;1.20;1.10;;;4.10;99.90;;;;;;5057829;28;20478;-80
2021/04/12 10:16:04;;;;;;;1.25;1.15;;;4.00;99.90;;;;;;5057266;28;20212;-81
2021/04/12 10:18:43;;;;;;;1.20;1.10;;;3.80;99.90;;;;;;5041809;28;20196;-80
2021/04/12 10:21:15;;;;;;;1.58;1.30;;;3.70;99.90;;;;;;5058179;28;20192;-80
2021/04/12 10:23:43;;;;;;;1.40;1.20;;;3.70;99.90;;;;;;5055270;28;20209;-80
2021/04/12 10:26:16;;;;;;;1.30;1.20;;;3.70;99.90;;;;;;5054856;28;20618;-80
2021/04/12 10:28:49;;;;;;;1.20;1.10;;;3.90;99.90;;;;;;5056084;28;20203;-85
2021/04/12 10:31:27;;;;;;;1.15;1.08;;;4.00;99.90;;;;;;5056530;28;20247;-80
2021/04/12 10:34:21;;;;;;;1.00;1.00;;;4.00;99.90;;;;;;5055847;28;20205;-79
2021/04/12 10:37:16;;;;;;;1.20;1.10;;;4.00;99.90;;;;;;5056993;28;20304;-84
2021/04/12 10:40:04;;;;;;;1.30;1.17;;;3.90;99.90;;;;;;5047545;28;20290;-85
2021/04/12 10:42:38;;;;;;;1.95;1.40;;;3.80;99.90;;;;;;5040894;28;20273;-83
2021/04/12 10:45:16;;;;;;;1.20;1.10;;;3.70;99.90;;;;;;5057940;28;20249;-82
2021/04/12 10:48:17;;;;;;;1.13;1.00;;;3.60;99.90;;;;;;5036507;28;20201;-81
2021/04/12 10:50:49;;;;;;;1.40;1.00;;;3.60;99.90;;;;;;5030266;28;20796;-80
2021/04/12 10:53:35;;;;;;;0.85;0.85;;;3.60;99.90;;;;;;5057064;28;20203;-80
2021/04/12 10:56:16;;;;;;;1.60;1.00;;;3.70;99.90;;;;;;5040018;28;20253;-80
2021/04/12 10:58:54;;;;;;;0.93;0.93;;;3.80;99.90;;;;;;5036604;28;20193;-83
2021/04/12 11:01:43;;;;;;;1.00;1.00;;;3.90;99.90;;;;;;5058941;28;20554;-81
2021/04/12 11:04:30;;;;;;;1.00;1.00;;;3.90;99.90;;;;;;5052932;28;20307;-81
2021/04/12 11:07:19;;;;;;;0.93;0.77;;;3.90;99.90;;;;;;5054602;28;20211;-81
2021/04/12 11:10:05;;;;;;;1.10;1.00;;;4.00;99.90;;;;;;5036566;28;20217;-81
2021/04/12 11:12:39;;;;;;;1.15;0.90;;;4.00;99.90;;;;;;5041018;28;20212;-82
2021/04/12 11:15:35;;;;;;;1.00;1.00;;;4.10;99.90;;;;;;5055525;28;20688;-80
2021/04/12 11:18:04;;;;;;;0.95;0.95;;;5.40;99.90;;;;;;5058734;28;20203;-78
2021/04/12 11:20:49;;;;;;;2.45;0.98;;;6.50;99.90;;;;;;5054779;28;20212;-82
2021/04/12 11:23:30;;;;;;;0.80;0.80;;;6.60;99.90;;;;;;5062053;28;20247;-80
2021/04/12 11:26:12;;;;;;;2.47;0.90;;;6.00;99.90;;;;;;5062239;28;20204;-80
2021/04/12 11:29:05;;;;;;;0.90;0.90;;;5.60;99.90;;;;;;5052312;28;20305;-80
2021/04/12 11:32:13;;;;;;;0.90;0.90;;;5.40;99.90;;;;;;5055966;28;20208;-80
2021/04/12 11:34:51;;;;;;;1.33;1.00;;;5.10;99.90;;;;;;5052625;28;20225;-79
2021/04/12 11:37:27;;;;;;;1.10;1.00;;;5.10;99.90;;;;;;5050954;28;20211;-83
2021/04/12 11:40:09;;;;;;;1.50;1.00;;;4.90;99.90;;;;;;5054559;28;20403;-81
2021/04/12 11:42:39;;;;;;;0.95;0.90;;;4.70;99.90;;;;;;5039855;28;20197;-84
2021/04/12 11:45:18;;;;;;;0.80;0.80;;;4.70;99.90;;;;;;5056589;28;20215;-82
2021/04/12 11:47:53;;;;;;;1.20;1.10;;;4.60;99.90;;;;;;5030131;28;20223;-81
2021/04/12 11:50:37;;;;;;;1.25;1.00;;;4.60;99.90;;;;;;5056765;28;20215;-81
2021/04/12 11:53:18;;;;;;;0.80;0.80;;;4.50;99.90;;;;;;5050224;28;20211;-80
2021/04/12 11:56:07;;;;;;;1.10;0.73;;;4.50;99.90;;;;;;5056489;28;20193;-80
2021/04/12 11:58:55;;;;;;;1.38;1.20;;;4.50;99.90;;;;;;5057224;28;20223;-80
2021/04/12 12:01:33;;;;;;;1.23;0.90;;;4.60;99.90;;;;;;5052560;28;20723;-80
2021/04/12 12:04:19;;;;;;;1.10;1.00;;;4.60;99.90;;;;;;5036975;28;20234;-80
2021/04/12 12:06:59;;;;;;;0.90;0.90;;;4.60;99.90;;;;;;5040359;28;20727;-80
2021/04/12 12:09:43;;;;;;;0.88;0.88;;;4.60;99.90;;;;;;5038703;28;20227;-80
2021/04/12 12:12:44;;;;;;;0.80;0.80;;;4.90;99.90;;;;;;5037529;28;20561;-78
2021/04/12 12:15:16;;;;;;;1.30;0.90;;;5.70;99.90;;;;;;5025420;28;20204;-77
2021/04/12 12:17:46;;;;;;;0.80;0.80;;;6.40;99.90;;;;;;5040801;28;20201;-80
2021/04/12 12:20:22;;;;;;;0.82;0.82;;;7.10;99.90;;;;;;5035346;28;20274;-79
2021/04/12 12:22:59;;;;;;;0.75;0.75;;;7.50;99.90;;;;;;5038373;28;20204;-81
2021/04/12 12:25:39;;;;;;;1.27;1.17;;;7.20;99.90;;;;;;5047385;28;20215;-82
2021/04/12 12:28:42;;;;;;;1.00;1.00;;;7.20;99.90;;;;;;5050467;28;20350;-80
2021/04/12 12:31:31;;;;;;;0.80;0.80;;;7.40;99.90;;;;;;5053761;28;20799;-81
2021/04/12 12:34:31;;;;;;;0.90;0.90;;;7.50;99.90;;;;;;5042354;28;20328;-83
2021/04/12 12:37:05;;;;;;;2.15;0.70;;;8.40;99.90;;;;;;5036416;28;20933;-81
2021/04/12 12:39:41;;;;;;;0.90;0.90;;;8.90;99.90;;;;;;5043865;28;20215;-83
2021/04/12 12:42:22;;;;;;;3.60;0.80;;;8.40;99.90;;;;;;5056443;28;20325;-81
2021/04/12 12:44:49;;;;;;;0.95;0.90;;;7.30;99.90;;;;;;5046108;28;20245;-81
2021/04/12 12:47:20;;;;;;;1.10;1.00;;;7.10;99.90;;;;;;5038409;28;20770;-82
2021/04/12 12:49:58;;;;;;;0.90;0.90;;;7.00;99.90;;;;;;5041862;28;20209;-83
2021/04/12 12:52:34;;;;;;;0.82;0.82;;;7.00;99.90;;;;;;5039134;28;20232;-81
2021/04/12 12:55:05;;;;;;;0.93;0.90;;;7.10;99.90;;;;;;5038242;28;20695;-82
2021/04/12 12:57:43;;;;;;;0.80;0.80;;;6.80;99.90;;;;;;5045245;28;20192;-82
2021/04/12 13:00:31;;;;;;;0.80;0.80;;;6.80;99.90;;;;;;5059585;28;20208;-81
2021/04/12 13:02:56;;;;;;;0.80;0.80;;;6.60;99.90;;;;;;5055586;28;20205;-81
2021/04/12 13:05:23;;;;;;;1.00;0.90;;;7.10;99.90;;;;;;5057265;28;20565;-81
2021/04/12 13:07:53;;;;;;;0.70;0.70;;;8.10;99.90;;;;;;5050137;28;20205;-81
2021/04/12 13:10:29;;;;;;;0.80;0.80;;;9.30;99.90;;;;;;5057629;28;20296;-81
2021/04/12 13:12:57;;;;;;;0.80;0.80;;;9.80;99.90;;;;;;5040550;28;20606;-82
2021/04/12 13:15:33;;;;;;;0.70;0.70;;;9.50;99.90;;;;;;5053534;28;20311;-81
2021/04/12 13:18:34;;;;;;;2.03;0.80;;;8.90;99.90;;;;;;5037506;28;20192;-81
2021/04/12 13:21:19;;;;;;;0.73;0.73;;;8.20;99.90;;;;;;5028392;28;20701;-83
2021/04/12 13:24:15;;;;;;;0.80;0.80;;;8.40;99.90;;;;;;5036863;28;20316;-82
2021/04/12 13:27:01;;;;;;;0.80;0.80;;;8.90;99.90;;;;;;5055163;28;20212;-84
2021/04/12 13:29:35;;;;;;;0.70;0.70;;;9.00;99.90;;;;;;5053954;28;20199;-81
2021/04/12 13:32:32;;;;;;;0.70;0.70;;;8.70;99.90;;;;;;5043679;28;20232;-82
2021/04/12 13:34:57;;;;;;;0.80;0.80;;;8.20;99.90;;;;;;5025757;28;20255;-82
2021/04/12 13:37:30;;;;;;;0.80;0.80;;;7.80;99.90;;;;;;5051310;28;20724;-83
2021/04/12 13:40:17;;;;;;;0.80;0.80;;;7.10;99.90;;;;;;5058137;28;20565;-82
2021/04/12 13:43:05;;;;;;;0.93;0.82;;;6.70;99.90;;;;;;5050870;28;20641;-81
2021/04/12 13:45:38;;;;;;;3.30;1.58;;;6.50;99.90;;;;;;5038529;28;20611;-82
2021/04/12 13:48:22;;;;;;;1.35;1.05;;;6.70;99.90;;;;;;5054395;28;20209;-81
2021/04/12 13:50:59;;;;;;;1.20;0.93;;;7.50;99.90;;;;;;5052552;28;20275;-82
2021/04/12 13:53:53;;;;;;;1.00;0.90;;;7.70;99.90;;;;;;5040193;28;20193;-82
2021/04/12 13:56:31;;;;;;;2.20;0.95;;;7.60;99.90;;;;;;5056502;28;20197;-82
2021/04/12 13:59:31;;;;;;;0.90;0.90;;;7.40;99.90;;;;;;5039864;28;20204;-81
2021/04/12 14:02:05;;;;;;;1.00;0.90;;;7.20;99.90;;;;;;5067500;28;20196;-81
2021/04/12 14:04:45;;;;;;;0.93;0.90;;;7.40;99.90;;;;;;5057129;28;20832;-82
2021/04/12 14:07:18;;;;;;;0.80;0.80;;;7.70;99.90;;;;;;5060425;28;20231;-83
2021/04/12 14:10:08;;;;;;;0.70;0.70;;;7.50;99.90;;;;;;5057921;28;20634;-83
2021/04/12 14:12:54;;;;;;;1.33;0.88;;;7.20;99.90;;;;;;5041671;28;20193;-82
2021/04/12 14:15:34;;;;;;;0.80;0.70;;;7.00;99.90;;;;;;5036207;28;20201;-82
2021/04/12 14:18:04;;;;;;;0.70;0.70;;;6.80;99.90;;;;;;5039311;28;20244;-83
2021/04/12 14:20:37;;;;;;;1.88;0.82;;;6.50;99.90;;;;;;5039583;28;20219;-83
2021/04/12 14:23:22;;;;;;;0.80;0.80;;;6.20;99.90;;;;;;5038889;28;20211;-83
2021/04/12 14:26:21;;;;;;;0.80;0.80;;;6.20;99.90;;;;;;5039169;28;20204;-82
2021/04/12 14:28:50;;;;;;;0.80;0.80;;;5.70;99.90;;;;;;5037626;28;20222;-83
2021/04/12 14:31:30;;;;;;;0.80;0.80;;;5.60;99.90;;;;;;5039434;28;20223;-83
2021/04/12 14:34:05;;;;;;;0.65;0.65;;;5.50;99.90;;;;;;5042790;28;20815;-84
2021/04/12 14:36:37;;;;;;;0.70;0.70;;;5.60;99.90;;;;;;5061167;28;20192;-82